createdAt,value
2023-03-02T00:01:09.502Z,102304.45
2023-03-02T00:03:39.005Z,102300.40
2023-03-02T00:06:07.249Z,102300.00
2023-03-02T00:08:35.626Z,102296.48
2023-03-02T00:11:03.661Z,102295.89
2023-03-02T00:13:32.419Z,102297.58
2023-03-02T00:16:00.254Z,102299.05
2023-03-02T00:18:28.078Z,102298.61
2023-03-02T00:20:55.891Z,102301.66
2023-03-02T00:23:23.732Z,102302.85
2023-03-02T00:25:51.528Z,102302.80
2023-03-02T00:28:20.634Z,102305.39
2023-03-02T00:30:48.495Z,102306.05
2023-03-02T00:33:16.255Z,102306.17
2023-03-02T00:35:43.933Z,102306.05
2023-03-02T00:38:14.681Z,102310.39
2023-03-02T00:40:46.343Z,102310.73
2023-03-02T00:43:14.174Z,102308.77
2023-03-02T00:45:42.246Z,102307.02
2023-03-02T00:48:10.028Z,102306.55
2023-03-02T00:50:41.105Z,102311.29
2023-03-02T00:53:11.994Z,102309.77
2023-03-02T00:55:39.840Z,102306.68
2023-03-02T00:58:07.683Z,102306.58
2023-03-02T01:00:37.146Z,102307.11
2023-03-02T01:03:05.263Z,102307.90
2023-03-02T01:05:36.320Z,102305.88
2023-03-02T01:08:04.233Z,102306.65
2023-03-02T01:10:32.492Z,102303.48
2023-03-02T01:13:00.378Z,102301.16
2023-03-02T01:15:28.132Z,102298.15
2023-03-02T01:17:55.916Z,102293.59
2023-03-02T01:20:23.661Z,102294.54
2023-03-02T01:22:51.578Z,102293.06
2023-03-02T01:25:19.501Z,102292.81
2023-03-02T01:27:47.328Z,102290.27
2023-03-02T01:30:15.842Z,102287.55
2023-03-02T01:32:43.643Z,102291.96
2023-03-02T01:35:11.699Z,102287.90
2023-03-02T01:37:39.439Z,102288.86
2023-03-02T01:40:09.245Z,102287.95
2023-03-02T01:42:38.788Z,102288.44
2023-03-02T01:45:27.077Z,102289.45
2023-03-02T01:47:54.935Z,102288.91
2023-03-02T01:50:26.750Z,102286.41
2023-03-02T01:52:55.312Z,102283.10
2023-03-02T01:55:25.352Z,102285.17
2023-03-02T01:57:54.855Z,102280.58
2023-03-02T02:00:25.070Z,102286.17
2023-03-02T02:02:54.000Z,102283.52
2023-03-02T02:05:24.377Z,102288.05
2023-03-02T02:07:52.367Z,102289.13
2023-03-02T02:10:20.310Z,102281.70
2023-03-02T02:12:47.998Z,102280.65
2023-03-02T02:15:15.965Z,102276.33
2023-03-02T02:17:43.686Z,102275.60
2023-03-02T02:20:30.501Z,102270.88
2023-03-02T02:23:01.396Z,102267.72
2023-03-02T02:25:48.323Z,102262.36
2023-03-02T02:28:19.673Z,102260.09
2023-03-02T02:30:51.363Z,102263.10
2023-03-02T02:33:22.299Z,102262.46
2023-03-02T02:35:54.105Z,102260.40
2023-03-02T02:38:22.804Z,102260.27
2023-03-02T02:40:50.623Z,102259.97
2023-03-02T02:43:19.994Z,102266.02
2023-03-02T02:45:52.901Z,102260.44
2023-03-02T02:48:23.885Z,102257.65
2023-03-02T02:51:00.555Z,102255.86
2023-03-02T02:53:40.558Z,102256.53
2023-03-02T02:56:09.789Z,102258.42
2023-03-02T02:58:40.383Z,102261.19
2023-03-02T03:01:09.246Z,102260.45
2023-03-02T03:03:39.319Z,102259.74
2023-03-02T03:06:09.156Z,102257.11
2023-03-02T03:08:46.150Z,102255.88
2023-03-02T03:11:15.905Z,102255.02
2023-03-02T03:13:44.484Z,102259.72
2023-03-02T03:16:14.854Z,102256.11
2023-03-02T03:18:43.649Z,102262.36
2023-03-02T03:21:11.519Z,102260.64
2023-03-02T03:23:39.503Z,102257.70
2023-03-02T03:26:07.810Z,102260.63
2023-03-02T03:28:35.948Z,102260.96
2023-03-02T03:31:03.927Z,102259.15
2023-03-02T03:33:31.835Z,102263.25
2023-03-02T03:36:00.837Z,102261.11
2023-03-02T03:38:30.356Z,102260.70
2023-03-02T03:40:58.864Z,102262.85
2023-03-02T03:43:27.032Z,102260.44
2023-03-02T03:45:54.736Z,102259.09
2023-03-02T03:48:22.529Z,102259.33
2023-03-02T03:50:50.172Z,102261.09
2023-03-02T03:53:17.978Z,102264.12
2023-03-02T03:55:45.702Z,102258.27
2023-03-02T03:58:13.622Z,102262.14
2023-03-02T04:00:41.331Z,102260.00
2023-03-02T04:03:09.199Z,102267.04
2023-03-02T04:05:37.190Z,102271.84
2023-03-02T04:08:05.036Z,102268.68
2023-03-02T04:10:32.864Z,102267.41
2023-03-02T04:13:00.820Z,102268.06
2023-03-02T04:15:28.655Z,102271.64
2023-03-02T04:17:56.500Z,102272.13
2023-03-02T04:20:25.681Z,102273.18
2023-03-02T04:22:54.294Z,102275.05
2023-03-02T04:25:24.148Z,102273.94
2023-03-02T04:27:52.807Z,102268.51
2023-03-02T04:30:23.622Z,102266.73
2023-03-02T04:32:51.462Z,102266.17
2023-03-02T04:35:19.639Z,102264.63
2023-03-02T04:37:48.190Z,102263.25
2023-03-02T04:40:17.699Z,102266.39
2023-03-02T04:42:45.511Z,102267.77
2023-03-02T04:45:13.550Z,102267.23
2023-03-02T04:47:41.593Z,102268.10
2023-03-02T04:50:11.500Z,102269.80
2023-03-02T04:52:39.653Z,102268.75
2023-03-02T04:55:07.680Z,102269.92
2023-03-02T04:57:35.465Z,102261.73
2023-03-02T05:00:05.468Z,102266.05
2023-03-02T05:02:34.103Z,102266.73
2023-03-02T05:05:02.400Z,102268.46
2023-03-02T05:07:30.206Z,102267.94
2023-03-02T05:09:57.954Z,102268.09
2023-03-02T05:12:25.635Z,102263.77
2023-03-02T05:14:53.675Z,102259.40
2023-03-02T05:17:21.414Z,102260.61
2023-03-02T05:19:49.364Z,102261.14
2023-03-02T05:22:17.133Z,102262.02
2023-03-02T05:24:45.178Z,102261.84
2023-03-02T05:27:12.870Z,102260.64
2023-03-02T05:29:40.660Z,102255.79
2023-03-02T05:32:10.450Z,102257.00
2023-03-02T05:34:38.269Z,102257.83
2023-03-02T05:37:05.974Z,102255.87
2023-03-02T05:39:34.119Z,102257.89
2023-03-02T05:42:01.858Z,102259.75
2023-03-02T05:44:29.598Z,102264.61
2023-03-02T05:46:57.666Z,102265.31
2023-03-02T05:49:25.619Z,102263.23
2023-03-02T05:51:53.358Z,102264.13
2023-03-02T05:54:21.166Z,102264.15
2023-03-02T05:56:50.343Z,102266.70
2023-03-02T05:59:18.224Z,102267.04
2023-03-02T06:01:46.074Z,102269.21
2023-03-02T06:04:14.121Z,102267.28
2023-03-02T06:06:41.949Z,102269.84
2023-03-02T06:09:09.724Z,102271.34
2023-03-02T06:11:37.824Z,102268.88
2023-03-02T06:14:05.635Z,102270.40
2023-03-02T06:16:34.577Z,102273.70
2023-03-02T06:19:02.825Z,102277.00
2023-03-02T06:21:30.592Z,102277.85
2023-03-02T06:23:58.505Z,102280.26
2023-03-02T06:26:26.265Z,102277.81
2023-03-02T06:28:54.253Z,102281.81
2023-03-02T06:31:22.296Z,102282.34
2023-03-02T06:33:50.201Z,102286.08
2023-03-02T06:36:18.285Z,102281.70
2023-03-02T06:38:46.148Z,102283.20
2023-03-02T06:41:13.859Z,102288.02
2023-03-02T06:43:41.750Z,102284.52
2023-03-02T06:46:09.516Z,102283.81
2023-03-02T06:48:37.753Z,102284.50
2023-03-02T06:51:06.223Z,102285.55
2023-03-02T06:53:34.307Z,102286.06
2023-03-02T06:56:02.046Z,102286.25
2023-03-02T06:58:29.856Z,102287.96
2023-03-02T07:00:57.649Z,102290.52
2023-03-02T07:03:25.671Z,102287.86
2023-03-02T07:05:53.651Z,102283.16
2023-03-02T07:08:21.442Z,102286.44
2023-03-02T07:10:49.172Z,102287.27
2023-03-02T07:13:17.044Z,102286.02
2023-03-02T07:15:45.981Z,102286.27
2023-03-02T07:18:13.894Z,102283.19
2023-03-02T07:20:41.659Z,102281.67
2023-03-02T07:23:09.417Z,102282.42
2023-03-02T07:25:37.185Z,102278.84
2023-03-02T07:28:05.146Z,102282.52
2023-03-02T07:30:32.964Z,102282.14
2023-03-02T07:33:00.835Z,102280.64
2023-03-02T07:35:29.085Z,102277.55
2023-03-02T07:37:57.078Z,102272.89
2023-03-02T07:40:24.813Z,102276.08
2023-03-02T07:42:52.656Z,102277.38
2023-03-02T07:45:21.957Z,102278.10
2023-03-02T07:47:49.640Z,102279.98
2023-03-02T07:50:17.518Z,102277.68
2023-03-02T07:52:45.210Z,102281.10
2023-03-02T07:55:13.186Z,102284.61
2023-03-02T07:57:40.862Z,102283.35
2023-03-02T08:00:09.514Z,102288.17
2023-03-02T08:02:37.256Z,102286.20
2023-03-02T08:05:05.339Z,102281.13
2023-03-02T08:07:33.042Z,102282.89
2023-03-02T08:10:01.099Z,102282.42
2023-03-02T08:12:29.189Z,102285.59
2023-03-02T08:14:57.522Z,102283.84
2023-03-02T08:17:26.302Z,102283.64
2023-03-02T08:19:54.035Z,102283.19
2023-03-02T08:22:21.935Z,102282.88
2023-03-02T08:24:49.582Z,102281.08
2023-03-02T08:27:17.463Z,102284.11
2023-03-02T08:29:46.069Z,102280.04
2023-03-02T08:32:14.344Z,102282.87
2023-03-02T08:34:43.214Z,102279.05
2023-03-02T08:37:11.121Z,102278.17
2023-03-02T08:39:39.018Z,102285.65
2023-03-02T08:42:06.724Z,102285.63
2023-03-02T08:44:34.675Z,102292.48
2023-03-02T08:47:02.706Z,102292.66
2023-03-02T08:49:30.793Z,102296.48
2023-03-02T08:51:59.430Z,102297.85
2023-03-02T08:54:27.333Z,102299.65
2023-03-02T08:56:55.907Z,102301.79
2023-03-02T08:59:23.943Z,102306.70
2023-03-02T09:01:51.740Z,102305.34
2023-03-02T09:04:19.839Z,102305.46
2023-03-02T09:06:47.631Z,102305.86
2023-03-02T09:09:15.616Z,102308.66
2023-03-02T09:11:44.830Z,102309.48
2023-03-02T09:14:13.732Z,102307.90
2023-03-02T09:16:41.776Z,102304.00
2023-03-02T09:19:10.223Z,102302.85
2023-03-02T09:21:38.079Z,102304.90
2023-03-02T09:24:05.910Z,102303.34
2023-03-02T09:26:34.229Z,102299.49
2023-03-02T09:29:02.229Z,102293.49
2023-03-02T09:31:30.731Z,102290.20
2023-03-02T09:33:59.032Z,102295.02
2023-03-02T09:36:27.258Z,102291.27
2023-03-02T09:38:55.796Z,102292.35
2023-03-02T09:41:26.586Z,102291.28
2023-03-02T09:44:16.085Z,102293.55
2023-03-02T09:46:48.533Z,102295.35
2023-03-02T09:49:22.485Z,102296.31
2023-03-02T09:51:56.013Z,102300.19
2023-03-02T09:54:25.565Z,102301.56
2023-03-02T09:56:55.041Z,102304.56
2023-03-02T09:59:28.688Z,102306.48
2023-03-02T10:02:01.500Z,102307.70
2023-03-02T10:04:31.584Z,102310.27
2023-03-02T10:07:13.881Z,102318.81
2023-03-02T10:09:42.710Z,102322.00
2023-03-02T10:12:10.486Z,102319.85
2023-03-02T10:14:42.023Z,102316.25
2023-03-02T10:17:12.533Z,102319.36
2023-03-02T10:19:44.245Z,102326.54
2023-03-02T10:22:20.982Z,102325.41
2023-03-02T10:24:57.884Z,102327.19
2023-03-02T10:27:31.819Z,102330.80
2023-03-02T10:30:18.594Z,102330.37
2023-03-02T10:32:50.989Z,102331.09
2023-03-02T10:35:23.628Z,102334.64
2023-03-02T10:37:55.230Z,102333.19
2023-03-02T10:40:29.327Z,102329.50
2023-03-02T10:42:58.421Z,102332.50
2023-03-02T10:45:26.326Z,102333.17
2023-03-02T10:48:01.299Z,102332.20
2023-03-02T10:50:30.768Z,102330.67
2023-03-02T10:53:01.071Z,102324.49
2023-03-02T10:55:30.682Z,102327.10
2023-03-02T10:58:01.187Z,102324.94
2023-03-02T11:00:30.077Z,102316.38
2023-03-02T11:02:59.623Z,102320.64
2023-03-02T11:05:29.275Z,102322.66
2023-03-02T11:08:08.509Z,102319.08
2023-03-02T11:10:37.849Z,102319.02
2023-03-02T11:13:24.294Z,102316.07
2023-03-02T11:15:54.255Z,102317.92
2023-03-02T11:18:27.437Z,102324.95
2023-03-02T11:20:57.514Z,102332.77
2023-03-02T11:23:25.395Z,102322.80
2023-03-02T11:25:55.413Z,102322.04
2023-03-02T11:28:43.909Z,102320.39
2023-03-02T11:31:22.629Z,102323.66
2023-03-02T11:34:07.876Z,102320.19
2023-03-02T11:36:44.845Z,102321.89
2023-03-02T11:39:16.788Z,102317.32
2023-03-02T11:41:45.279Z,102311.72
2023-03-02T11:44:16.035Z,102312.97
2023-03-02T11:46:59.218Z,102317.42
2023-03-02T11:49:39.955Z,102308.77
2023-03-02T11:52:16.036Z,102310.23
2023-03-02T11:54:46.868Z,102311.19
2023-03-02T11:57:22.894Z,102306.96
2023-03-02T11:59:50.895Z,102305.48
2023-03-02T12:02:19.243Z,102311.21
2023-03-02T12:04:47.488Z,102307.03
2023-03-02T12:07:23.129Z,102311.14
2023-03-02T12:10:01.643Z,102312.85
2023-03-02T12:12:33.384Z,102310.90
2023-03-02T12:15:01.346Z,102310.07
2023-03-02T12:17:30.834Z,102309.95
2023-03-02T12:20:07.995Z,102307.00
2023-03-02T12:22:36.381Z,102300.11
2023-03-02T12:25:25.324Z,102300.77
2023-03-02T12:27:54.535Z,102301.27
2023-03-02T12:30:26.304Z,102300.42
2023-03-02T12:33:05.690Z,102297.17
2023-03-02T12:35:36.882Z,102299.13
2023-03-02T12:38:17.101Z,102297.65
2023-03-02T12:40:47.588Z,102295.81
2023-03-02T12:43:31.265Z,102291.83
2023-03-02T12:46:18.004Z,102292.75
2023-03-02T12:48:51.169Z,102288.73
2023-03-02T12:51:23.589Z,102291.98
2023-03-02T12:54:05.362Z,102285.48
2023-03-02T12:56:33.930Z,102280.84
2023-03-02T12:59:02.031Z,102286.50
2023-03-02T13:01:31.074Z,102283.02
2023-03-02T13:03:59.215Z,102281.52
2023-03-02T13:06:30.047Z,102282.17
2023-03-02T13:08:59.065Z,102279.50
2023-03-02T13:11:31.281Z,102276.15
2023-03-02T13:13:59.642Z,102274.81
2023-03-02T13:16:31.729Z,102272.30
2023-03-02T13:19:01.730Z,102271.05
2023-03-02T13:21:29.545Z,102276.39
2023-03-02T13:23:57.656Z,102270.99
2023-03-02T13:26:33.580Z,102270.08
2023-03-02T13:29:04.679Z,102267.72
2023-03-02T13:31:33.362Z,102265.52
2023-03-02T13:34:01.414Z,102259.55
2023-03-02T13:36:31.528Z,102263.58
2023-03-02T13:39:00.309Z,102263.95
2023-03-02T13:41:29.686Z,102257.77
2023-03-02T13:43:58.698Z,102257.02
2023-03-02T13:46:36.651Z,102257.90
2023-03-02T13:49:11.224Z,102247.64
2023-03-02T13:51:45.516Z,102249.79
2023-03-02T13:54:13.708Z,102252.55
2023-03-02T13:56:44.191Z,102258.13
2023-03-02T13:59:18.091Z,102259.84
2023-03-02T14:01:46.389Z,102261.91
2023-03-02T14:04:16.803Z,102260.20
2023-03-02T14:06:45.539Z,102249.63
2023-03-02T14:09:13.803Z,102247.62
2023-03-02T14:11:46.895Z,102241.70
2023-03-02T14:14:16.903Z,102243.00
2023-03-02T14:16:44.684Z,102242.61
2023-03-02T14:19:13.884Z,102246.80
2023-03-02T14:21:43.423Z,102242.39
2023-03-02T14:24:11.600Z,102243.04
2023-03-02T14:26:44.586Z,102241.83
2023-03-02T14:29:32.375Z,102241.08
2023-03-02T14:32:03.690Z,102252.73
2023-03-02T14:34:32.584Z,102245.38
2023-03-02T14:37:02.898Z,102244.71
2023-03-02T14:39:34.242Z,102244.27
2023-03-02T14:42:02.626Z,102244.15
2023-03-02T14:44:30.434Z,102235.95
2023-03-02T14:46:58.649Z,102241.09
2023-03-02T14:49:26.419Z,102239.17
2023-03-02T14:52:05.655Z,102235.96
2023-03-02T14:54:38.381Z,102233.78
2023-03-02T14:57:08.357Z,102238.33
2023-03-02T14:59:36.159Z,102232.90
2023-03-02T15:02:15.934Z,102229.33
2023-03-02T15:04:55.985Z,102227.33
2023-03-02T15:07:25.397Z,102223.34
2023-03-02T15:09:54.496Z,102226.54
2023-03-02T15:12:22.395Z,102225.05
2023-03-02T15:14:50.234Z,102218.16
2023-03-02T15:17:18.083Z,102225.08
2023-03-02T15:19:45.901Z,102220.20
2023-03-02T15:22:14.284Z,102216.95
2023-03-02T15:24:42.086Z,102212.94
2023-03-02T15:27:10.056Z,102216.19
2023-03-02T15:29:37.927Z,102207.08
2023-03-02T15:32:05.769Z,102208.20
2023-03-02T15:34:33.758Z,102209.33
2023-03-02T15:37:01.498Z,102212.05
2023-03-02T15:39:29.560Z,102200.84
2023-03-02T15:41:57.535Z,102198.33
2023-03-02T15:44:25.485Z,102197.92
2023-03-02T15:46:54.595Z,102207.38
2023-03-02T15:49:24.833Z,102200.30
2023-03-02T15:51:53.450Z,102204.73
2023-03-02T15:54:21.500Z,102200.14
2023-03-02T15:56:52.326Z,102197.55
2023-03-02T15:59:20.880Z,102201.03
2023-03-02T16:01:49.332Z,102204.98
2023-03-02T16:04:18.694Z,102206.32
2023-03-02T16:06:46.516Z,102214.79
2023-03-02T16:09:14.221Z,102213.52
2023-03-02T16:11:42.136Z,102218.31
2023-03-02T16:14:09.933Z,102217.46
2023-03-02T16:16:37.803Z,102218.23
2023-03-02T16:19:05.526Z,102214.63
2023-03-02T16:21:33.454Z,102218.11
2023-03-02T16:24:03.401Z,102212.89
2023-03-02T16:26:33.089Z,102214.33
2023-03-02T16:29:01.099Z,102216.20
2023-03-02T16:31:32.468Z,102221.27
2023-03-02T16:34:03.832Z,102223.19
2023-03-02T16:36:31.692Z,102227.70
2023-03-02T16:38:59.413Z,102228.58
2023-03-02T16:41:27.175Z,102235.52
2023-03-02T16:43:55.827Z,102247.02
2023-03-02T16:46:24.327Z,102244.80
2023-03-02T16:48:52.576Z,102247.89
2023-03-02T16:51:20.934Z,102251.71
2023-03-02T16:53:49.043Z,102250.80
2023-03-02T16:56:17.026Z,102251.52
2023-03-02T16:58:44.881Z,102251.14
2023-03-02T17:01:14.445Z,102250.81
2023-03-02T17:03:45.217Z,102259.11
2023-03-02T17:06:14.221Z,102258.80
2023-03-02T17:08:42.450Z,102264.27
2023-03-02T17:11:10.588Z,102259.78
2023-03-02T17:13:39.120Z,102266.48
2023-03-02T17:16:07.051Z,102262.36
2023-03-02T17:18:35.208Z,102267.14
2023-03-02T17:21:04.140Z,102273.82
2023-03-02T17:23:32.237Z,102271.60
2023-03-02T17:26:00.663Z,102278.19
2023-03-02T17:28:28.914Z,102280.67
2023-03-02T17:30:56.786Z,102281.17
2023-03-02T17:33:24.747Z,102285.00
2023-03-02T17:35:52.433Z,102286.00
2023-03-02T17:38:20.179Z,102289.59
2023-03-02T17:40:47.921Z,102296.30
2023-03-02T17:43:16.021Z,102296.39
2023-03-02T17:45:43.779Z,102301.38
2023-03-02T17:48:11.577Z,102314.10
2023-03-02T17:50:39.277Z,102315.90
2023-03-02T17:53:07.998Z,102317.17
2023-03-02T17:55:35.741Z,102320.12
2023-03-02T17:58:03.890Z,102324.24
2023-03-02T18:00:31.587Z,102331.37
2023-03-02T18:02:59.589Z,102341.21
2023-03-02T18:05:27.771Z,102339.06
2023-03-02T18:07:55.690Z,102336.20
2023-03-02T18:10:23.442Z,102339.72
2023-03-02T18:12:54.011Z,102338.71
2023-03-02T18:15:22.316Z,102339.11
2023-03-02T18:17:50.079Z,102343.50
2023-03-02T18:20:17.827Z,102344.48
2023-03-02T18:22:45.820Z,102342.85
2023-03-02T18:25:13.768Z,102347.48
2023-03-02T18:27:41.689Z,102349.13
2023-03-02T18:30:10.029Z,102352.26
2023-03-02T18:32:38.019Z,102354.38
2023-03-02T18:35:06.696Z,102351.61
2023-03-02T18:37:34.669Z,102350.59
2023-03-02T18:40:02.575Z,102353.45
2023-03-02T18:42:30.503Z,102356.48
2023-03-02T18:44:58.458Z,102358.59
2023-03-02T18:47:26.584Z,102355.27
2023-03-02T18:49:54.267Z,102359.61
2023-03-02T18:52:22.351Z,102358.36
2023-03-02T18:54:50.104Z,102364.11
2023-03-02T18:57:17.817Z,102362.56
2023-03-02T18:59:45.484Z,102365.77
2023-03-02T19:02:14.226Z,102373.08
2023-03-02T19:04:42.213Z,102374.29
2023-03-02T19:07:10.420Z,102374.63
2023-03-02T19:09:38.175Z,102372.87
2023-03-02T19:12:06.058Z,102380.52
2023-03-02T19:14:33.815Z,102377.02
2023-03-02T19:17:01.751Z,102382.05
2023-03-02T19:19:30.416Z,102378.96
2023-03-02T19:21:59.054Z,102382.13
2023-03-02T19:24:28.308Z,102379.52
2023-03-02T19:26:56.063Z,102377.20
2023-03-02T19:29:24.122Z,102378.19
2023-03-02T19:31:55.848Z,102383.86
2023-03-02T19:34:23.660Z,102387.71
2023-03-02T19:36:51.534Z,102394.95
2023-03-02T19:39:19.436Z,102395.42
2023-03-02T19:41:47.161Z,102396.08
2023-03-02T19:44:17.472Z,102398.63
2023-03-02T19:46:45.157Z,102399.42
2023-03-02T19:49:13.083Z,102406.66
2023-03-02T19:51:40.850Z,102409.87
2023-03-02T19:54:08.756Z,102410.24
2023-03-02T19:56:39.729Z,102411.77
2023-03-02T19:59:07.961Z,102415.58
2023-03-02T20:01:35.783Z,102414.00
2023-03-02T20:04:04.070Z,102417.16
2023-03-02T20:06:34.140Z,102418.54
2023-03-02T20:09:04.461Z,102422.56
2023-03-02T20:11:32.477Z,102419.82
2023-03-02T20:14:03.406Z,102424.73
2023-03-02T20:16:32.792Z,102423.17
2023-03-02T20:19:02.085Z,102430.28
2023-03-02T20:21:30.734Z,102428.46
2023-03-02T20:23:58.868Z,102434.20
2023-03-02T20:26:27.340Z,102433.29
2023-03-02T20:28:55.713Z,102434.19
2023-03-02T20:31:25.042Z,102430.55
2023-03-02T20:33:54.546Z,102439.27
2023-03-02T20:36:25.853Z,102439.98
2023-03-02T20:38:59.571Z,102440.86
2023-03-02T20:41:27.296Z,102443.28
2023-03-02T20:43:55.108Z,102444.14
2023-03-02T20:46:27.155Z,102445.20
2023-03-02T20:48:55.601Z,102446.95
2023-03-02T20:51:23.402Z,102451.17
2023-03-02T20:53:53.225Z,102453.81
2023-03-02T20:56:21.565Z,102449.30
2023-03-02T20:58:49.424Z,102450.70
2023-03-02T21:01:18.582Z,102452.25
2023-03-02T21:03:47.046Z,102452.58
2023-03-02T21:06:15.606Z,102457.79
2023-03-02T21:08:44.204Z,102458.66
2023-03-02T21:11:15.923Z,102459.55
2023-03-02T21:13:47.557Z,102461.14
2023-03-02T21:16:18.657Z,102460.99
2023-03-02T21:18:46.551Z,102464.48
2023-03-02T21:21:14.342Z,102467.42
2023-03-02T21:23:42.228Z,102470.41
2023-03-02T21:26:11.163Z,102469.42
2023-03-02T21:28:39.180Z,102472.09
2023-03-02T21:31:07.480Z,102472.12
2023-03-02T21:33:35.451Z,102473.35
2023-03-02T21:36:03.413Z,102476.49
2023-03-02T21:38:32.611Z,102475.58
2023-03-02T21:41:00.331Z,102472.23
2023-03-02T21:43:28.113Z,102470.30
2023-03-02T21:45:55.824Z,102470.19
2023-03-02T21:48:23.724Z,102469.52
2023-03-02T21:50:51.649Z,102473.57
2023-03-02T21:53:19.729Z,102472.53
2023-03-02T21:55:47.954Z,102470.80
2023-03-02T21:58:17.213Z,102473.13
2023-03-02T22:00:45.707Z,102469.27
2023-03-02T22:03:15.019Z,102469.08
2023-03-02T22:05:43.166Z,102466.15
2023-03-02T22:08:16.935Z,102468.34
2023-03-02T22:10:45.923Z,102466.67
2023-03-02T22:13:24.405Z,102466.16
2023-03-02T22:16:03.050Z,102469.64
2023-03-02T22:18:31.371Z,102465.46
2023-03-02T22:20:59.339Z,102464.59
2023-03-02T22:23:27.869Z,102469.64
2023-03-02T22:26:01.421Z,102467.09
2023-03-02T22:28:29.487Z,102469.23
2023-03-02T22:30:58.701Z,102470.47
2023-03-02T22:33:28.142Z,102466.66
2023-03-02T22:36:04.965Z,102462.84
2023-03-02T22:38:33.056Z,102460.54
2023-03-02T22:41:00.801Z,102458.61
2023-03-02T22:43:29.647Z,102460.89
2023-03-02T22:46:17.573Z,102462.81
2023-03-02T22:48:49.882Z,102460.26
2023-03-02T22:51:19.172Z,102460.45
2023-03-02T22:53:51.389Z,102459.23
2023-03-02T22:56:25.638Z,102456.61
2023-03-02T22:58:53.735Z,102451.25
2023-03-02T23:01:29.648Z,102453.83
2023-03-02T23:04:05.774Z,102456.50
2023-03-02T23:06:38.318Z,102454.61
2023-03-02T23:09:06.732Z,102455.54
2023-03-02T23:11:37.637Z,102454.67
2023-03-02T23:14:23.220Z,102457.27
2023-03-02T23:16:56.917Z,102452.21
2023-03-02T23:19:26.619Z,102453.98
2023-03-02T23:21:54.780Z,102451.02
2023-03-02T23:24:22.692Z,102447.39
2023-03-02T23:26:51.521Z,102450.20
2023-03-02T23:29:20.008Z,102449.86
2023-03-02T23:31:49.636Z,102453.54
2023-03-02T23:34:18.054Z,102453.67
2023-03-02T23:36:45.838Z,102460.77
2023-03-02T23:39:18.078Z,102455.78
2023-03-02T23:41:46.467Z,102459.79
2023-03-02T23:44:14.429Z,102460.17
2023-03-02T23:46:46.083Z,102461.41
2023-03-02T23:49:14.201Z,102463.16
2023-03-02T23:51:42.378Z,102464.40
2023-03-02T23:54:10.723Z,102464.38
2023-03-02T23:56:38.945Z,102468.34
2023-03-02T23:59:09.356Z,102465.89
